createdAt,value
2018-01-19T00:01:51.398Z,24.37
2018-01-19T00:04:19.533Z,28.15
2018-01-19T00:06:47.687Z,31.77
2018-01-19T00:09:15.836Z,29.08
2018-01-19T00:11:43.993Z,25.92
2018-01-19T00:14:12.129Z,27.73
2018-01-19T00:16:40.281Z,25.42
2018-01-19T00:19:08.430Z,27.85
2018-01-19T00:21:36.601Z,30.42
2018-01-19T00:24:04.754Z,25.20
2018-01-19T00:26:32.925Z,24.48
2018-01-19T00:29:01.825Z,22.20
2018-01-19T00:31:29.977Z,21.90
2018-01-19T00:33:58.889Z,22.45
2018-01-19T00:36:27.053Z,27.65
2018-01-19T00:38:55.953Z,23.02
2018-01-19T00:41:24.110Z,25.00
2018-01-19T00:43:53.015Z,24.77
2018-01-19T00:46:21.169Z,24.63
2018-01-19T00:48:50.079Z,22.98
2018-01-19T00:51:18.244Z,26.25
2018-01-19T00:53:47.146Z,22.13
2018-01-19T00:56:15.302Z,24.10
2018-01-19T00:58:44.207Z,21.00
2018-01-19T01:01:12.361Z,21.10
2018-01-19T01:03:41.261Z,22.45
2018-01-19T01:06:09.430Z,17.92
2018-01-19T01:08:38.334Z,25.00
2018-01-19T01:11:06.489Z,25.10
2018-01-19T01:13:35.393Z,22.98
2018-01-19T01:16:03.553Z,22.62
2018-01-19T01:18:32.462Z,21.30
2018-01-19T01:21:00.629Z,23.48
2018-01-19T01:23:29.526Z,22.08
2018-01-19T01:25:57.658Z,20.17
2018-01-19T01:28:25.821Z,16.85
2018-01-19T01:30:53.962Z,15.38
2018-01-19T01:33:22.120Z,17.87
2018-01-19T01:35:50.253Z,21.35
2018-01-19T01:38:18.418Z,21.08
2018-01-19T01:40:46.550Z,18.95
2018-01-19T01:43:14.710Z,20.67
2018-01-19T01:45:42.847Z,22.48
2018-01-19T01:48:10.997Z,20.60
2018-01-19T01:50:39.128Z,22.42
2018-01-19T01:53:07.287Z,22.05
2018-01-19T01:55:35.417Z,23.02
2018-01-19T01:58:03.574Z,19.45
2018-01-19T02:00:31.716Z,20.65
2018-01-19T02:02:59.873Z,22.45
2018-01-19T02:05:28.011Z,22.15
2018-01-19T02:07:56.161Z,31.73
2018-01-19T02:10:24.312Z,29.70
2018-01-19T02:12:52.470Z,27.58
2018-01-19T02:15:20.596Z,27.80
2018-01-19T02:17:48.764Z,23.52
2018-01-19T02:20:16.901Z,38.72
2018-01-19T02:22:45.057Z,31.75
2018-01-19T02:25:13.192Z,23.62
2018-01-19T02:27:41.358Z,23.58
2018-01-19T02:30:09.483Z,30.12
2018-01-19T02:32:38.410Z,22.13
2018-01-19T02:35:06.550Z,21.05
2018-01-19T02:37:34.713Z,25.15
2018-01-19T02:40:02.850Z,33.15
2018-01-19T02:42:31.025Z,25.75
2018-01-19T02:44:59.156Z,30.67
2018-01-19T02:47:27.325Z,26.10
2018-01-19T02:49:55.460Z,35.13
2018-01-19T02:52:23.618Z,26.55
2018-01-19T02:54:51.749Z,34.70
2018-01-19T02:57:19.912Z,31.42
2018-01-19T02:59:48.045Z,29.35
2018-01-19T03:02:16.206Z,28.70
2018-01-19T03:04:44.353Z,28.30
2018-01-19T03:07:12.513Z,30.92
2018-01-19T03:09:40.652Z,27.95
2018-01-19T03:12:08.819Z,26.33
2018-01-19T03:14:36.956Z,32.50
2018-01-19T03:17:05.114Z,29.75
2018-01-19T03:19:33.244Z,26.90
2018-01-19T03:22:01.397Z,28.87
2018-01-19T03:24:29.534Z,28.65
2018-01-19T03:26:57.688Z,27.60
2018-01-19T03:29:25.827Z,29.90
2018-01-19T03:31:53.993Z,37.58
2018-01-19T03:34:22.126Z,25.73
2018-01-19T03:36:50.297Z,32.33
2018-01-19T03:39:18.429Z,26.62
2018-01-19T03:41:46.593Z,25.60
2018-01-19T03:44:14.725Z,31.23
2018-01-19T03:46:42.884Z,28.65
2018-01-19T03:49:11.016Z,29.17
2018-01-19T03:51:39.152Z,30.83
2018-01-19T03:54:07.312Z,27.58
2018-01-19T03:56:35.444Z,27.00
2018-01-19T03:59:03.610Z,38.88
2018-01-19T04:01:31.740Z,33.53
2018-01-19T04:03:59.906Z,37.47
2018-01-19T04:06:28.041Z,44.80
2018-01-19T04:08:56.208Z,34.75
2018-01-19T04:11:24.342Z,43.35
2018-01-19T04:13:52.496Z,38.90
2018-01-19T04:16:20.633Z,36.70
2018-01-19T04:18:48.784Z,43.47
2018-01-19T04:21:16.918Z,35.45
2018-01-19T04:23:45.099Z,36.28
2018-01-19T04:26:13.232Z,30.40
2018-01-19T04:28:41.398Z,37.20
2018-01-19T04:31:10.304Z,27.85
2018-01-19T04:33:38.467Z,29.37
2018-01-19T04:36:07.362Z,28.85
2018-01-19T04:38:35.521Z,33.15
2018-01-19T04:41:04.429Z,28.00
2018-01-19T04:43:32.588Z,35.15
2018-01-19T04:46:01.484Z,26.70
2018-01-19T04:48:30.417Z,34.00
2018-01-19T04:50:58.555Z,36.33
2018-01-19T04:53:26.710Z,32.40
2018-01-19T04:55:54.847Z,38.55
2018-01-19T04:58:23.007Z,35.45
2018-01-19T05:00:51.132Z,33.40
2018-01-19T05:03:19.288Z,35.00
2018-01-19T05:05:47.416Z,41.42
2018-01-19T05:08:15.582Z,45.63
2018-01-19T05:10:43.704Z,65.55
2018-01-19T05:13:11.867Z,51.10
2018-01-19T05:15:39.998Z,63.08
2018-01-19T05:18:08.159Z,58.25
2018-01-19T05:20:36.300Z,58.67
2018-01-19T05:23:04.457Z,73.80
2018-01-19T05:25:32.593Z,53.83
2018-01-19T05:28:00.749Z,61.65
2018-01-19T05:30:28.885Z,54.40
2018-01-19T05:32:57.046Z,67.10
2018-01-19T05:35:25.176Z,58.70
2018-01-19T05:37:53.338Z,52.33
2018-01-19T05:40:21.469Z,58.63
2018-01-19T05:42:49.646Z,43.40
2018-01-19T05:45:17.777Z,46.40
2018-01-19T05:47:45.938Z,53.35
2018-01-19T05:50:14.074Z,43.83
2018-01-19T05:52:42.248Z,44.75
2018-01-19T05:55:10.381Z,50.70
2018-01-19T05:57:38.619Z,43.67
2018-01-19T06:00:06.750Z,49.35
2018-01-19T06:02:34.913Z,52.80
2018-01-19T06:05:03.047Z,41.58
2018-01-19T06:07:31.215Z,51.70
2018-01-19T06:09:59.355Z,40.17
2018-01-19T06:12:27.505Z,42.60
2018-01-19T06:14:55.645Z,42.20
2018-01-19T06:17:23.830Z,43.40
2018-01-19T06:19:51.985Z,36.13
2018-01-19T06:22:20.874Z,38.53
2018-01-19T06:24:49.038Z,36.03
2018-01-19T06:27:17.949Z,49.75
2018-01-19T06:29:46.101Z,41.63
2018-01-19T06:32:15.007Z,47.75
2018-01-19T06:34:43.181Z,41.17
2018-01-19T06:37:11.322Z,44.95
2018-01-19T06:39:39.490Z,45.45
2018-01-19T06:42:07.623Z,46.08
2018-01-19T06:44:35.784Z,52.42
2018-01-19T06:47:03.922Z,49.63
2018-01-19T06:49:32.091Z,36.75
2018-01-19T06:52:00.226Z,40.30
2018-01-19T06:54:28.443Z,34.75
2018-01-19T06:56:56.576Z,28.60
2018-01-19T06:59:24.733Z,42.35
2018-01-19T07:01:52.901Z,43.00
2018-01-19T07:04:21.089Z,33.58
2018-01-19T07:06:49.229Z,34.55
2018-01-19T07:09:17.417Z,38.40
2018-01-19T07:11:45.548Z,40.88
2018-01-19T07:14:13.713Z,44.70
2018-01-19T07:16:41.856Z,50.30
2018-01-19T07:19:10.022Z,42.67
2018-01-19T07:21:38.154Z,40.80
2018-01-19T07:24:06.322Z,38.47
2018-01-19T07:26:34.444Z,37.97
2018-01-19T07:29:02.609Z,37.28
2018-01-19T07:31:30.757Z,33.20
2018-01-19T07:33:58.910Z,52.00
2018-01-19T07:36:27.038Z,58.65
2018-01-19T07:38:55.226Z,81.68
2018-01-19T07:41:23.357Z,68.57
2018-01-19T07:43:51.523Z,59.13
2018-01-19T07:46:19.668Z,55.90
2018-01-19T07:48:47.825Z,38.33
2018-01-19T07:51:15.958Z,52.90
2018-01-19T07:53:44.112Z,50.12
2018-01-19T07:56:12.241Z,36.90
2018-01-19T07:58:40.401Z,34.28
2018-01-19T08:01:08.534Z,39.55
2018-01-19T08:03:36.688Z,35.05
2018-01-19T08:06:04.817Z,34.22
2018-01-19T08:08:32.982Z,33.15
2018-01-19T08:11:01.117Z,36.35
2018-01-19T08:13:29.289Z,33.63
2018-01-19T08:15:57.418Z,34.67
2018-01-19T08:18:25.565Z,33.97
2018-01-19T08:20:53.706Z,34.47
2018-01-19T08:23:21.866Z,30.35
2018-01-19T08:25:49.999Z,42.95
2018-01-19T08:28:18.922Z,28.80
2018-01-19T08:30:47.052Z,32.10
2018-01-19T08:33:15.213Z,35.83
2018-01-19T08:35:43.341Z,27.83
2018-01-19T08:38:11.513Z,35.58
2018-01-19T08:40:39.668Z,27.42
2018-01-19T08:43:07.803Z,29.48
2018-01-19T08:45:35.962Z,37.28
2018-01-19T08:48:04.105Z,28.77
2018-01-19T08:50:32.298Z,32.08
2018-01-19T08:53:01.193Z,36.53
2018-01-19T08:55:29.404Z,25.50
2018-01-19T08:57:57.546Z,28.25
2018-01-19T09:00:25.700Z,26.27
2018-01-19T09:02:53.857Z,27.02
2018-01-19T09:05:22.017Z,32.47
2018-01-19T09:07:50.155Z,24.60
2018-01-19T09:10:18.316Z,24.12
2018-01-19T09:12:46.477Z,20.95
2018-01-19T09:15:15.429Z,23.00
2018-01-19T09:17:44.381Z,25.85
2018-01-19T09:20:12.537Z,23.42
2018-01-19T09:22:41.438Z,23.30
2018-01-19T09:25:09.626Z,24.67
2018-01-19T09:27:37.761Z,27.83
2018-01-19T09:30:05.921Z,22.30
2018-01-19T09:32:34.053Z,24.55
2018-01-19T09:35:02.214Z,23.52
2018-01-19T09:37:30.348Z,22.30
2018-01-19T09:39:58.513Z,19.87
2018-01-19T09:42:26.644Z,18.12
2018-01-19T09:44:55.566Z,19.98
2018-01-19T09:47:23.695Z,26.62
2018-01-19T09:49:51.867Z,22.33
2018-01-19T09:52:20.002Z,14.40
2018-01-19T09:54:48.152Z,20.15
2018-01-19T09:57:16.300Z,18.35
2018-01-19T09:59:44.469Z,17.75
2018-01-19T10:02:12.606Z,14.40
2018-01-19T10:04:40.759Z,20.00
2018-01-19T10:07:08.906Z,15.95
2018-01-19T10:09:37.076Z,17.65
2018-01-19T10:12:05.218Z,15.75
2018-01-19T10:14:33.414Z,16.10
2018-01-19T10:17:01.580Z,12.52
2018-01-19T10:19:29.759Z,15.30
2018-01-19T10:21:57.909Z,12.37
2018-01-19T10:24:26.066Z,14.98
2018-01-19T10:26:54.202Z,14.52
2018-01-19T10:29:22.364Z,12.45
2018-01-19T10:31:50.496Z,17.30
2018-01-19T10:34:18.653Z,47.95
2018-01-19T10:36:46.786Z,38.38
2018-01-19T10:39:14.957Z,35.10
2018-01-19T10:41:43.094Z,38.72
2018-01-19T10:44:11.244Z,20.88
2018-01-19T10:46:39.372Z,15.38
2018-01-19T10:49:07.542Z,18.42
2018-01-19T10:51:35.684Z,16.02
2018-01-19T10:54:03.845Z,15.57
2018-01-19T10:56:32.749Z,20.23
2018-01-19T10:59:00.942Z,15.73
2018-01-19T11:01:29.084Z,14.10
2018-01-19T11:03:57.236Z,19.12
2018-01-19T11:06:25.370Z,15.23
2018-01-19T11:08:53.511Z,15.88
2018-01-19T11:11:22.445Z,18.27
2018-01-19T11:13:50.583Z,14.20
2018-01-19T11:16:18.762Z,17.40
2018-01-19T11:18:46.910Z,15.13
2018-01-19T11:21:15.065Z,14.27
2018-01-19T11:23:43.197Z,13.77
2018-01-19T11:26:11.488Z,15.60
2018-01-19T11:28:39.637Z,14.18
2018-01-19T11:31:07.793Z,17.10
2018-01-19T11:33:35.912Z,14.25
2018-01-19T11:36:04.096Z,12.37
2018-01-19T11:38:32.273Z,12.82
2018-01-19T11:41:00.430Z,15.18
2018-01-19T11:43:28.573Z,15.43
2018-01-19T11:45:56.725Z,13.52
2018-01-19T11:48:25.620Z,12.10
2018-01-19T11:50:53.782Z,13.80
2018-01-19T11:53:22.682Z,13.50
2018-01-19T11:55:50.883Z,14.13
2018-01-19T11:58:18.993Z,13.00
2018-01-19T12:00:47.158Z,15.10
2018-01-19T12:03:15.281Z,15.55
2018-01-19T12:05:43.449Z,10.75
2018-01-19T12:08:12.341Z,13.13
2018-01-19T12:10:40.503Z,15.63
2018-01-19T12:13:09.401Z,14.23
2018-01-19T12:15:37.573Z,17.87
2018-01-19T12:18:06.478Z,17.37
2018-01-19T12:20:34.728Z,13.27
2018-01-19T12:23:02.870Z,18.45
2018-01-19T12:25:31.104Z,15.40
2018-01-19T12:27:59.247Z,17.02
2018-01-19T12:30:27.405Z,15.75
2018-01-19T12:32:55.594Z,15.18
2018-01-19T12:35:23.788Z,13.62
2018-01-19T12:37:51.949Z,17.00
2018-01-19T12:40:20.116Z,14.50
2018-01-19T12:42:49.074Z,15.05
2018-01-19T12:45:17.239Z,14.20
2018-01-19T12:47:45.383Z,14.30
2018-01-19T12:50:13.540Z,13.60
2018-01-19T12:52:41.685Z,16.55
2018-01-19T12:55:09.844Z,12.88
2018-01-19T12:57:37.983Z,14.02
2018-01-19T13:00:06.146Z,14.30
2018-01-19T13:02:34.282Z,13.70
2018-01-19T13:05:02.439Z,18.15
2018-01-19T13:07:30.561Z,15.45
2018-01-19T13:09:58.726Z,13.27
2018-01-19T13:12:26.861Z,16.95
2018-01-19T13:14:55.016Z,14.07
2018-01-19T13:17:23.149Z,12.55
2018-01-19T13:19:51.308Z,11.60
2018-01-19T13:22:19.444Z,11.68
2018-01-19T13:24:47.614Z,14.10
2018-01-19T13:27:15.772Z,11.07
2018-01-19T13:29:43.928Z,12.25
2018-01-19T13:32:12.062Z,14.63
2018-01-19T13:34:40.219Z,13.05
2018-01-19T13:37:08.397Z,13.00
2018-01-19T13:39:36.535Z,13.35
2018-01-19T13:42:04.680Z,15.05
2018-01-19T13:44:32.809Z,15.02
2018-01-19T13:47:01.014Z,14.93
2018-01-19T13:49:29.150Z,16.90
2018-01-19T13:51:57.305Z,22.02
2018-01-19T13:54:25.453Z,18.90
2018-01-19T13:56:53.615Z,19.73
2018-01-19T13:59:21.776Z,20.88
2018-01-19T14:01:50.704Z,25.02
2018-01-19T14:04:18.850Z,18.00
2018-01-19T14:06:47.773Z,19.23
2018-01-19T14:09:15.905Z,18.17
2018-01-19T14:11:44.833Z,23.25
2018-01-19T14:14:12.967Z,16.45
2018-01-19T14:16:41.895Z,23.15
2018-01-19T14:19:10.081Z,22.23
2018-01-19T14:21:38.265Z,18.42
2018-01-19T14:24:06.433Z,19.25
2018-01-19T14:26:34.605Z,18.52
2018-01-19T14:29:02.735Z,19.62
2018-01-19T14:31:30.888Z,20.33
2018-01-19T14:33:59.088Z,22.77
2018-01-19T14:36:28.035Z,35.50
2018-01-19T14:38:56.228Z,23.80
2018-01-19T14:41:24.394Z,23.33
2018-01-19T14:43:52.521Z,25.95
2018-01-19T14:46:20.673Z,23.23
2018-01-19T14:48:48.827Z,26.98
2018-01-19T14:51:16.993Z,28.75
2018-01-19T14:53:45.145Z,33.90
2018-01-19T14:56:13.306Z,22.15
2018-01-19T14:58:41.442Z,26.17
2018-01-19T15:01:09.612Z,23.98
2018-01-19T15:03:37.745Z,26.65
2018-01-19T15:06:05.966Z,28.98
2018-01-19T15:08:34.098Z,36.95
2018-01-19T15:11:02.271Z,28.05
2018-01-19T15:13:30.402Z,33.58
2018-01-19T15:15:58.630Z,28.25
2018-01-19T15:18:26.769Z,37.17
2018-01-19T15:20:54.999Z,28.87
2018-01-19T15:23:23.206Z,33.55
2018-01-19T15:25:51.470Z,36.08
2018-01-19T15:28:19.723Z,46.30
2018-01-19T15:30:48.697Z,33.20
2018-01-19T15:33:16.856Z,46.55
2018-01-19T15:35:45.018Z,37.53
2018-01-19T15:38:13.195Z,58.05
2018-01-19T15:40:41.367Z,48.90
2018-01-19T15:43:09.554Z,38.30
2018-01-19T15:45:37.737Z,36.58
2018-01-19T15:48:05.910Z,49.58
2018-01-19T15:50:34.089Z,39.95
2018-01-19T15:53:02.241Z,36.05
2018-01-19T15:55:30.397Z,34.85
2018-01-19T15:57:58.630Z,29.75
2018-01-19T16:00:26.767Z,38.25
2018-01-19T16:02:54.952Z,42.72
2018-01-19T16:05:23.162Z,38.08
2018-01-19T16:07:51.514Z,34.70
2018-01-19T16:10:19.677Z,37.75
2018-01-19T16:12:47.958Z,32.80
2018-01-19T16:15:16.207Z,30.15
2018-01-19T16:17:44.390Z,33.08
2018-01-19T16:20:12.842Z,33.08
2018-01-19T16:22:41.019Z,25.80
2018-01-19T16:25:09.214Z,28.23
2018-01-19T16:27:37.435Z,25.95
2018-01-19T16:30:05.608Z,25.75
2018-01-19T16:32:33.779Z,27.98
2018-01-19T16:35:01.981Z,23.40
2018-01-19T16:37:30.171Z,30.17
2018-01-19T16:39:58.308Z,25.48
2018-01-19T16:42:26.466Z,33.15
2018-01-19T16:44:55.384Z,25.95
2018-01-19T16:47:23.582Z,28.15
2018-01-19T16:49:51.736Z,30.73
2018-01-19T16:52:19.906Z,31.83
2018-01-19T16:54:48.037Z,27.85
2018-01-19T16:57:16.963Z,32.53
2018-01-19T16:59:45.097Z,29.92
2018-01-19T17:02:13.245Z,27.27
2018-01-19T17:04:41.390Z,33.92
2018-01-19T17:07:09.555Z,30.00
2018-01-19T17:09:37.709Z,28.33
2018-01-19T17:12:06.633Z,37.28
2018-01-19T17:14:34.800Z,33.40
2018-01-19T17:17:02.965Z,33.35
2018-01-19T17:19:31.119Z,35.85
2018-01-19T17:21:59.288Z,32.53
2018-01-19T17:24:28.189Z,37.78
2018-01-19T17:27:01.524Z,31.37
2018-01-19T17:29:29.666Z,30.55
2018-01-19T17:31:57.846Z,35.92
2018-01-19T17:34:26.008Z,32.80
2018-01-19T17:36:54.215Z,35.33
2018-01-19T17:39:22.440Z,41.50
2018-01-19T17:41:50.685Z,33.85
2018-01-19T17:44:19.499Z,27.83
2018-01-19T17:46:48.269Z,45.10
2018-01-19T17:49:17.666Z,38.00
2018-01-19T17:51:46.223Z,33.30
2018-01-19T17:54:14.601Z,38.03
2018-01-19T17:56:43.237Z,35.55
2018-01-19T17:59:12.106Z,36.22
2018-01-19T18:01:41.118Z,33.25
2018-01-19T18:04:09.650Z,32.10
2018-01-19T18:06:38.290Z,30.10
2018-01-19T18:09:07.119Z,38.20
2018-01-19T18:11:35.902Z,28.05
2018-01-19T18:14:04.904Z,34.80
2018-01-19T18:16:33.924Z,33.95
2018-01-19T18:19:02.101Z,32.47
2018-01-19T18:21:30.275Z,34.80
2018-01-19T18:23:58.428Z,41.35
2018-01-19T18:26:26.599Z,39.67
2018-01-19T18:28:54.751Z,34.22
2018-01-19T18:31:22.949Z,34.05
2018-01-19T18:33:51.086Z,30.98
2018-01-19T18:36:19.337Z,30.20
2018-01-19T18:38:47.992Z,31.58
2018-01-19T18:41:16.191Z,30.77
2018-01-19T18:43:44.365Z,34.40
2018-01-19T18:46:13.287Z,28.92
2018-01-19T18:48:41.947Z,31.80
2018-01-19T18:51:10.612Z,28.38
2018-01-19T18:53:39.026Z,32.65
2018-01-19T18:56:07.204Z,32.53
2018-01-19T18:58:35.365Z,35.10
2018-01-19T19:01:03.541Z,27.75
2018-01-19T19:03:31.742Z,29.02
2018-01-19T19:05:59.933Z,37.25
2018-01-19T19:08:28.068Z,34.83
2018-01-19T19:10:56.254Z,31.42
2018-01-19T19:13:24.438Z,39.70
2018-01-19T19:15:52.834Z,35.28
2018-01-19T19:18:21.138Z,33.60
2018-01-19T19:20:49.337Z,36.35
2018-01-19T19:23:17.959Z,34.83
2018-01-19T19:25:46.549Z,39.45
2018-01-19T19:28:14.759Z,39.83
2018-01-19T19:30:42.940Z,43.30
2018-01-19T19:33:11.882Z,39.60
2018-01-19T19:35:40.169Z,49.80
2018-01-19T19:38:08.368Z,39.78
2018-01-19T19:40:36.503Z,44.63
2018-01-19T19:43:04.786Z,37.17
2018-01-19T19:45:32.929Z,39.85
2018-01-19T19:48:01.086Z,37.60
2018-01-19T19:50:29.570Z,24.33
2018-01-19T19:52:57.966Z,48.75
2018-01-19T19:55:26.094Z,48.15
2018-01-19T19:57:54.253Z,41.97
2018-01-19T20:00:22.389Z,43.42
2018-01-19T20:02:50.570Z,49.75
2018-01-19T20:05:18.723Z,36.88
2018-01-19T20:07:47.770Z,42.83
2018-01-19T20:10:15.909Z,42.08
2018-01-19T20:12:44.092Z,49.33
2018-01-19T20:15:12.218Z,39.60
2018-01-19T20:17:41.136Z,51.33
2018-01-19T20:20:09.272Z,51.15
2018-01-19T20:22:38.225Z,48.83
2018-01-19T20:25:06.358Z,55.92
2018-01-19T20:27:34.514Z,44.97
2018-01-19T20:30:02.767Z,52.40
2018-01-19T20:32:30.925Z,56.13
2018-01-19T20:34:59.057Z,53.15
2018-01-19T20:37:27.209Z,50.33
2018-01-19T20:39:55.379Z,56.13
2018-01-19T20:42:23.540Z,50.20
2018-01-19T20:44:51.674Z,53.78
2018-01-19T20:47:19.832Z,54.10
2018-01-19T20:49:48.018Z,57.15
2018-01-19T20:52:16.150Z,48.33
2018-01-19T20:54:45.053Z,47.70
2018-01-19T20:57:14.075Z,50.00
2018-01-19T20:59:42.219Z,54.13
2018-01-19T21:02:11.170Z,53.22
2018-01-19T21:04:39.304Z,52.92
2018-01-19T21:07:07.483Z,48.95
2018-01-19T21:09:35.671Z,49.45
2018-01-19T21:12:03.807Z,57.42
2018-01-19T21:14:31.962Z,52.50
2018-01-19T21:17:00.099Z,54.92
2018-01-19T21:19:28.280Z,53.45
2018-01-19T21:21:56.460Z,54.88
2018-01-19T21:24:24.708Z,51.42
2018-01-19T21:26:52.956Z,57.30
2018-01-19T21:29:21.149Z,55.75
2018-01-19T21:31:49.337Z,56.25
2018-01-19T21:34:17.493Z,51.65
2018-01-19T21:36:45.665Z,55.33
2018-01-19T21:39:13.839Z,55.30
2018-01-19T21:41:42.009Z,49.35
2018-01-19T21:44:10.183Z,63.13
2018-01-19T21:46:38.368Z,47.72
2018-01-19T21:49:06.542Z,52.40
2018-01-19T21:51:35.464Z,49.20
2018-01-19T21:54:03.727Z,50.12
2018-01-19T21:56:31.906Z,43.63
2018-01-19T21:59:00.214Z,46.80
2018-01-19T22:01:28.547Z,52.90
2018-01-19T22:03:56.749Z,45.05
2018-01-19T22:06:24.936Z,48.45
2018-01-19T22:08:53.196Z,49.08
2018-01-19T22:11:21.453Z,52.55
2018-01-19T22:13:49.658Z,49.28
2018-01-19T22:16:17.808Z,55.85
2018-01-19T22:18:46.764Z,50.63
2018-01-19T22:21:14.909Z,48.17
2018-01-19T22:23:43.845Z,49.50
2018-01-19T22:26:12.038Z,50.90
2018-01-19T22:28:40.230Z,50.28
2018-01-19T22:31:08.384Z,53.20
2018-01-19T22:33:36.610Z,52.55
2018-01-19T22:36:04.740Z,60.15
2018-01-19T22:38:32.898Z,52.53
2018-01-19T22:41:01.026Z,60.85
2018-01-19T22:43:29.205Z,53.58
2018-01-19T22:45:57.334Z,49.67
2018-01-19T22:48:25.497Z,51.80
2018-01-19T22:50:53.630Z,47.47
2018-01-19T22:53:21.833Z,57.38
2018-01-19T22:55:49.974Z,48.38
2018-01-19T22:58:18.143Z,52.08
2018-01-19T23:00:46.313Z,42.60
2018-01-19T23:03:14.469Z,42.25
2018-01-19T23:05:42.595Z,39.60
2018-01-19T23:08:10.750Z,37.55
2018-01-19T23:10:38.886Z,40.10
2018-01-19T23:13:07.040Z,43.38
2018-01-19T23:15:35.185Z,41.28
2018-01-19T23:18:03.342Z,49.85
2018-01-19T23:20:31.504Z,48.60
2018-01-19T23:22:59.673Z,39.83
2018-01-19T23:25:27.832Z,47.13
2018-01-19T23:27:56.753Z,40.75
2018-01-19T23:30:24.895Z,42.03
2018-01-19T23:32:53.786Z,32.63
2018-01-19T23:35:21.954Z,42.20
2018-01-19T23:37:50.850Z,40.60
2018-01-19T23:40:19.006Z,39.30
2018-01-19T23:42:47.134Z,40.72
2018-01-19T23:45:15.317Z,39.67
2018-01-19T23:47:43.449Z,41.08
2018-01-19T23:50:11.641Z,36.55
2018-01-19T23:52:39.772Z,37.13
2018-01-19T23:55:07.954Z,40.72
2018-01-19T23:57:36.082Z,38.83
